sensor_id;sensor_type;location;lat;lon;timestamp;P1;durP1;ratioP1;P2;durP2;ratioP2
23015;SDS011;11674;52.428;13.584;2023-02-28T00:04:14;12.90;;;5.20;;
23015;SDS011;11674;52.428;13.584;2023-02-28T00:09:21;7.63;;;3.95;;
23015;SDS011;11674;52.428;13.584;2023-02-28T00:14:29;6.32;;;3.70;;
23015;SDS011;11674;52.428;13.584;2023-02-28T00:19:36;9.98;;;4.00;;
23015;SDS011;11674;52.428;13.584;2023-02-28T00:24:43;5.22;;;3.10;;
23015;SDS011;11674;52.428;13.584;2023-02-28T00:29:50;5.80;;;3.63;;
23015;SDS011;11674;52.428;13.584;2023-02-28T00:34:57;5.13;;;3.17;;
23015;SDS011;11674;52.428;13.584;2023-02-28T00:40:04;6.57;;;3.47;;
23015;SDS011;11674;52.428;13.584;2023-02-28T00:45:12;7.43;;;3.55;;
23015;SDS011;11674;52.428;13.584;2023-02-28T00:50:19;4.38;;;3.08;;
23015;SDS011;11674;52.428;13.584;2023-02-28T00:55:26;6.80;;;3.65;;
23015;SDS011;11674;52.428;13.584;2023-02-28T01:00:33;10.00;;;4.30;;
23015;SDS011;11674;52.428;13.584;2023-02-28T01:05:40;9.95;;;4.10;;
23015;SDS011;11674;52.428;13.584;2023-02-28T01:10:47;10.95;;;3.90;;
23015;SDS011;11674;52.428;13.584;2023-02-28T01:15:55;7.50;;;3.80;;
23015;SDS011;11674;52.428;13.584;2023-02-28T01:21:06;8.82;;;4.03;;
23015;SDS011;11674;52.428;13.584;2023-02-28T01:26:21;12.30;;;4.25;;
23015;SDS011;11674;52.428;13.584;2023-02-28T01:31:29;5.18;;;3.83;;
23015;SDS011;11674;52.428;13.584;2023-02-28T01:36:36;6.35;;;4.20;;
23015;SDS011;11674;52.428;13.584;2023-02-28T01:41:44;7.25;;;3.88;;
23015;SDS011;11674;52.428;13.584;2023-02-28T01:46:52;9.98;;;4.15;;
23015;SDS011;11674;52.428;13.584;2023-02-28T01:51:59;12.57;;;4.13;;
23015;SDS011;11674;52.428;13.584;2023-02-28T01:57:16;10.90;;;4.25;;
23015;SDS011;11674;52.428;13.584;2023-02-28T02:02:25;6.28;;;3.65;;
23015;SDS011;11674;52.428;13.584;2023-02-28T02:07:35;8.70;;;4.07;;
23015;SDS011;11674;52.428;13.584;2023-02-28T02:18:23;10.02;;;4.00;;
23015;SDS011;11674;52.428;13.584;2023-02-28T02:34:41;7.75;;;4.47;;
23015;SDS011;11674;52.428;13.584;2023-02-28T02:45:25;7.82;;;3.95;;
23015;SDS011;11674;52.428;13.584;2023-02-28T02:50:36;6.63;;;3.58;;
23015;SDS011;11674;52.428;13.584;2023-02-28T02:55:46;6.82;;;3.70;;
23015;SDS011;11674;52.428;13.584;2023-02-28T03:00:57;8.35;;;3.95;;
23015;SDS011;11674;52.428;13.584;2023-02-28T03:06:07;9.93;;;3.42;;
23015;SDS011;11674;52.428;13.584;2023-02-28T03:11:14;9.05;;;3.88;;
23015;SDS011;11674;52.428;13.584;2023-02-28T03:16:35;8.23;;;3.72;;
23015;SDS011;11674;52.428;13.584;2023-02-28T03:21:52;7.68;;;4.30;;
23015;SDS011;11674;52.428;13.584;2023-02-28T03:27:07;7.05;;;3.95;;
23015;SDS011;11674;52.428;13.584;2023-02-28T03:32:21;6.68;;;3.92;;
23015;SDS011;11674;52.428;13.584;2023-02-28T03:37:40;7.50;;;3.97;;
23015;SDS011;11674;52.428;13.584;2023-02-28T03:42:52;6.78;;;3.60;;
23015;SDS011;11674;52.428;13.584;2023-02-28T03:48:07;7.30;;;3.90;;
23015;SDS011;11674;52.428;13.584;2023-02-28T03:53:23;10.70;;;4.18;;
23015;SDS011;11674;52.428;13.584;2023-02-28T03:58:39;7.03;;;3.95;;
23015;SDS011;11674;52.428;13.584;2023-02-28T04:03:54;7.43;;;4.20;;
23015;SDS011;11674;52.428;13.584;2023-02-28T04:09:02;7.72;;;4.22;;
23015;SDS011;11674;52.428;13.584;2023-02-28T04:14:11;5.55;;;3.60;;
23015;SDS011;11674;52.428;13.584;2023-02-28T04:19:18;10.85;;;4.28;;
23015;SDS011;11674;52.428;13.584;2023-02-28T04:24:26;8.93;;;4.30;;
23015;SDS011;11674;52.428;13.584;2023-02-28T04:29:34;13.63;;;6.45;;
23015;SDS011;11674;52.428;13.584;2023-02-28T04:34:41;7.15;;;3.95;;
23015;SDS011;11674;52.428;13.584;2023-02-28T04:39:48;8.48;;;4.20;;
23015;SDS011;11674;52.428;13.584;2023-02-28T04:44:55;8.50;;;4.70;;
23015;SDS011;11674;52.428;13.584;2023-02-28T04:50:02;10.20;;;5.55;;
23015;SDS011;11674;52.428;13.584;2023-02-28T04:55:18;7.43;;;4.47;;
23015;SDS011;11674;52.428;13.584;2023-02-28T05:00:38;8.50;;;4.18;;
23015;SDS011;11674;52.428;13.584;2023-02-28T05:06:04;10.05;;;4.80;;
23015;SDS011;11674;52.428;13.584;2023-02-28T05:11:31;11.25;;;4.78;;
23015;SDS011;11674;52.428;13.584;2023-02-28T05:16:54;9.63;;;4.47;;
23015;SDS011;11674;52.428;13.584;2023-02-28T05:22:22;8.50;;;4.72;;
23015;SDS011;11674;52.428;13.584;2023-02-28T05:27:41;7.18;;;4.30;;
23015;SDS011;11674;52.428;13.584;2023-02-28T05:33:15;9.95;;;4.80;;
23015;SDS011;11674;52.428;13.584;2023-02-28T05:38:25;8.87;;;4.83;;
23015;SDS011;11674;52.428;13.584;2023-02-28T05:43:38;7.57;;;4.47;;
23015;SDS011;11674;52.428;13.584;2023-02-28T05:48:46;9.75;;;4.80;;
23015;SDS011;11674;52.428;13.584;2023-02-28T05:53:54;17.83;;;5.57;;
23015;SDS011;11674;52.428;13.584;2023-02-28T05:59:01;12.63;;;6.35;;
23015;SDS011;11674;52.428;13.584;2023-02-28T06:04:09;16.42;;;7.68;;
23015;SDS011;11674;52.428;13.584;2023-02-28T06:09:16;16.35;;;7.18;;
23015;SDS011;11674;52.428;13.584;2023-02-28T06:14:24;15.60;;;7.20;;
23015;SDS011;11674;52.428;13.584;2023-02-28T06:19:31;11.77;;;6.28;;
23015;SDS011;11674;52.428;13.584;2023-02-28T06:24:40;13.02;;;5.72;;
23015;SDS011;11674;52.428;13.584;2023-02-28T06:29:47;14.95;;;6.30;;
23015;SDS011;11674;52.428;13.584;2023-02-28T06:34:54;10.02;;;5.65;;
23015;SDS011;11674;52.428;13.584;2023-02-28T06:40:01;10.05;;;5.50;;
23015;SDS011;11674;52.428;13.584;2023-02-28T06:45:15;12.18;;;6.90;;
23015;SDS011;11674;52.428;13.584;2023-02-28T06:50:31;16.33;;;8.02;;
23015;SDS011;11674;52.428;13.584;2023-02-28T06:55:39;16.27;;;8.98;;
23015;SDS011;11674;52.428;13.584;2023-02-28T07:00:49;13.95;;;7.85;;
23015;SDS011;11674;52.428;13.584;2023-02-28T07:05:58;14.32;;;7.93;;
23015;SDS011;11674;52.428;13.584;2023-02-28T07:11:05;13.55;;;7.47;;
23015;SDS011;11674;52.428;13.584;2023-02-28T07:16:12;15.57;;;7.72;;
23015;SDS011;11674;52.428;13.584;2023-02-28T07:21:19;12.27;;;6.55;;
23015;SDS011;11674;52.428;13.584;2023-02-28T07:26:26;14.43;;;6.60;;
23015;SDS011;11674;52.428;13.584;2023-02-28T07:31:33;13.82;;;6.25;;
23015;SDS011;11674;52.428;13.584;2023-02-28T07:36:40;13.93;;;6.40;;
23015;SDS011;11674;52.428;13.584;2023-02-28T07:41:47;11.30;;;5.43;;
23015;SDS011;11674;52.428;13.584;2023-02-28T07:46:59;13.57;;;5.90;;
23015;SDS011;11674;52.428;13.584;2023-02-28T07:52:05;11.38;;;5.32;;
23015;SDS011;11674;52.428;13.584;2023-02-28T07:57:13;7.75;;;4.93;;
23015;SDS011;11674;52.428;13.584;2023-02-28T08:02:20;11.55;;;5.30;;
23015;SDS011;11674;52.428;13.584;2023-02-28T08:07:27;10.93;;;4.60;;
23015;SDS011;11674;52.428;13.584;2023-02-28T08:12:34;9.07;;;4.68;;
23015;SDS011;11674;52.428;13.584;2023-02-28T08:17:41;11.38;;;4.70;;
23015;SDS011;11674;52.428;13.584;2023-02-28T08:22:48;10.15;;;4.70;;
23015;SDS011;11674;52.428;13.584;2023-02-28T08:27:55;8.00;;;4.50;;
23015;SDS011;11674;52.428;13.584;2023-02-28T08:33:02;8.05;;;4.60;;
23015;SDS011;11674;52.428;13.584;2023-02-28T08:38:09;9.30;;;4.97;;
23015;SDS011;11674;52.428;13.584;2023-02-28T08:43:16;10.07;;;4.82;;
23015;SDS011;11674;52.428;13.584;2023-02-28T08:48:23;9.60;;;4.10;;
23015;SDS011;11674;52.428;13.584;2023-02-28T08:53:31;7.38;;;4.10;;
23015;SDS011;11674;52.428;13.584;2023-02-28T08:58:38;8.45;;;4.13;;
23015;SDS011;11674;52.428;13.584;2023-02-28T09:03:47;8.13;;;4.22;;
23015;SDS011;11674;52.428;13.584;2023-02-28T09:08:58;7.43;;;4.40;;
23015;SDS011;11674;52.428;13.584;2023-02-28T09:14:05;9.77;;;4.45;;
23015;SDS011;11674;52.428;13.584;2023-02-28T09:19:12;8.32;;;4.00;;
23015;SDS011;11674;52.428;13.584;2023-02-28T09:24:19;9.18;;;4.25;;
23015;SDS011;11674;52.428;13.584;2023-02-28T09:29:26;7.45;;;3.35;;
23015;SDS011;11674;52.428;13.584;2023-02-28T09:34:33;6.65;;;3.05;;
23015;SDS011;11674;52.428;13.584;2023-02-28T09:39:40;8.10;;;3.10;;
23015;SDS011;11674;52.428;13.584;2023-02-28T09:44:47;7.28;;;3.47;;
23015;SDS011;11674;52.428;13.584;2023-02-28T09:49:55;3.20;;;1.92;;
23015;SDS011;11674;52.428;13.584;2023-02-28T09:55:22;7.18;;;2.30;;
23015;SDS011;11674;52.428;13.584;2023-02-28T10:00:37;3.60;;;2.13;;
23015;SDS011;11674;52.428;13.584;2023-02-28T10:05:54;4.30;;;2.00;;
23015;SDS011;11674;52.428;13.584;2023-02-28T10:11:23;3.00;;;1.70;;
23015;SDS011;11674;52.428;13.584;2023-02-28T10:22:05;3.25;;;1.92;;
23015;SDS011;11674;52.428;13.584;2023-02-28T10:27:24;3.95;;;1.88;;
23015;SDS011;11674;52.428;13.584;2023-02-28T10:32:33;3.17;;;1.80;;
23015;SDS011;11674;52.428;13.584;2023-02-28T10:37:43;7.07;;;1.95;;
23015;SDS011;11674;52.428;13.584;2023-02-28T10:42:55;4.80;;;1.98;;
23015;SDS011;11674;52.428;13.584;2023-02-28T10:48:05;3.67;;;1.63;;
23015;SDS011;11674;52.428;13.584;2023-02-28T10:53:33;5.07;;;2.00;;
23015;SDS011;11674;52.428;13.584;2023-02-28T11:04:18;5.75;;;2.42;;
23015;SDS011;11674;52.428;13.584;2023-02-28T11:09:33;5.93;;;2.58;;
23015;SDS011;11674;52.428;13.584;2023-02-28T11:14:48;5.38;;;2.30;;
23015;SDS011;11674;52.428;13.584;2023-02-28T11:20:02;5.38;;;1.80;;
23015;SDS011;11674;52.428;13.584;2023-02-28T11:25:46;5.50;;;2.20;;
23015;SDS011;11674;52.428;13.584;2023-02-28T11:30:45;4.10;;;2.28;;
23015;SDS011;11674;52.428;13.584;2023-02-28T11:35:52;4.25;;;2.42;;
23015;SDS011;11674;52.428;13.584;2023-02-28T11:46:31;6.00;;;2.28;;
23015;SDS011;11674;52.428;13.584;2023-02-28T11:51:49;3.40;;;2.38;;
23015;SDS011;11674;52.428;13.584;2023-02-28T12:02:29;4.38;;;2.20;;
23015;SDS011;11674;52.428;13.584;2023-02-28T12:07:49;5.82;;;2.58;;
23015;SDS011;11674;52.428;13.584;2023-02-28T12:13:18;3.83;;;2.33;;
23015;SDS011;11674;52.428;13.584;2023-02-28T12:18:28;4.50;;;2.20;;
23015;SDS011;11674;52.428;13.584;2023-02-28T12:23:47;4.32;;;2.38;;
23015;SDS011;11674;52.428;13.584;2023-02-28T12:34:24;2.97;;;2.10;;
23015;SDS011;11674;52.428;13.584;2023-02-28T12:39:39;4.22;;;2.20;;
23015;SDS011;11674;52.428;13.584;2023-02-28T12:44:52;6.05;;;2.92;;
23015;SDS011;11674;52.428;13.584;2023-02-28T12:50:06;5.22;;;2.50;;
23015;SDS011;11674;52.428;13.584;2023-02-28T13:00:38;4.03;;;2.25;;
23015;SDS011;11674;52.428;13.584;2023-02-28T13:06:38;3.15;;;1.98;;
23015;SDS011;11674;52.428;13.584;2023-02-28T13:11:46;4.40;;;2.28;;
23015;SDS011;11674;52.428;13.584;2023-02-28T13:16:55;5.90;;;2.28;;
23015;SDS011;11674;52.428;13.584;2023-02-28T13:27:51;6.82;;;2.70;;
23015;SDS011;11674;52.428;13.584;2023-02-28T13:38:32;3.67;;;1.98;;
23015;SDS011;11674;52.428;13.584;2023-02-28T14:00:08;5.30;;;2.25;;
23015;SDS011;11674;52.428;13.584;2023-02-28T14:05:37;4.90;;;2.60;;
23015;SDS011;11674;52.428;13.584;2023-02-28T14:10:47;5.68;;;3.33;;
23015;SDS011;11674;52.428;13.584;2023-02-28T14:31:24;7.28;;;3.40;;
23015;SDS011;11674;52.428;13.584;2023-02-28T14:36:40;17.13;;;5.72;;
23015;SDS011;11674;52.428;13.584;2023-02-28T14:41:49;4.55;;;2.85;;
23015;SDS011;11674;52.428;13.584;2023-02-28T14:46:57;5.25;;;2.20;;
23015;SDS011;11674;52.428;13.584;2023-02-28T14:57:33;4.57;;;3.00;;
23015;SDS011;11674;52.428;13.584;2023-02-28T15:02:45;5.45;;;2.65;;
23015;SDS011;11674;52.428;13.584;2023-02-28T15:08:06;5.28;;;2.30;;
23015;SDS011;11674;52.428;13.584;2023-02-28T15:13:21;5.65;;;2.47;;
23015;SDS011;11674;52.428;13.584;2023-02-28T15:18:31;4.97;;;2.70;;
23015;SDS011;11674;52.428;13.584;2023-02-28T15:24:06;4.57;;;2.70;;
23015;SDS011;11674;52.428;13.584;2023-02-28T15:29:21;5.35;;;2.60;;
23015;SDS011;11674;52.428;13.584;2023-02-28T15:34:40;4.38;;;2.50;;
23015;SDS011;11674;52.428;13.584;2023-02-28T15:39:48;4.80;;;2.60;;
23015;SDS011;11674;52.428;13.584;2023-02-28T15:44:55;3.83;;;2.42;;
23015;SDS011;11674;52.428;13.584;2023-02-28T15:50:04;5.38;;;2.45;;
23015;SDS011;11674;52.428;13.584;2023-02-28T16:00:26;5.63;;;2.75;;
23015;SDS011;11674;52.428;13.584;2023-02-28T16:05:34;5.90;;;3.28;;
23015;SDS011;11674;52.428;13.584;2023-02-28T16:10:41;6.55;;;3.17;;
23015;SDS011;11674;52.428;13.584;2023-02-28T16:15:48;6.45;;;3.72;;
23015;SDS011;11674;52.428;13.584;2023-02-28T16:20:55;10.55;;;3.80;;
23015;SDS011;11674;52.428;13.584;2023-02-28T16:26:02;12.77;;;5.03;;
23015;SDS011;11674;52.428;13.584;2023-02-28T16:31:10;15.50;;;4.70;;
23015;SDS011;11674;52.428;13.584;2023-02-28T16:36:20;15.65;;;7.88;;
23015;SDS011;11674;52.428;13.584;2023-02-28T16:41:28;11.18;;;5.90;;
23015;SDS011;11674;52.428;13.584;2023-02-28T16:46:42;13.77;;;6.30;;
23015;SDS011;11674;52.428;13.584;2023-02-28T16:51:49;8.88;;;3.97;;
23015;SDS011;11674;52.428;13.584;2023-02-28T16:56:56;10.70;;;4.30;;
23015;SDS011;11674;52.428;13.584;2023-02-28T17:02:08;11.95;;;4.93;;
23015;SDS011;11674;52.428;13.584;2023-02-28T17:07:21;11.25;;;5.30;;
23015;SDS011;11674;52.428;13.584;2023-02-28T17:12:28;12.30;;;5.90;;
23015;SDS011;11674;52.428;13.584;2023-02-28T17:17:35;9.77;;;4.82;;
23015;SDS011;11674;52.428;13.584;2023-02-28T17:22:42;14.65;;;4.60;;
23015;SDS011;11674;52.428;13.584;2023-02-28T17:27:49;7.78;;;3.85;;
23015;SDS011;11674;52.428;13.584;2023-02-28T17:32:56;9.38;;;4.53;;
23015;SDS011;11674;52.428;13.584;2023-02-28T17:38:03;11.82;;;4.88;;
23015;SDS011;11674;52.428;13.584;2023-02-28T17:43:10;17.42;;;7.18;;
23015;SDS011;11674;52.428;13.584;2023-02-28T17:48:17;19.85;;;8.93;;
23015;SDS011;11674;52.428;13.584;2023-02-28T17:53:24;20.38;;;9.32;;
23015;SDS011;11674;52.428;13.584;2023-02-28T17:58:32;32.33;;;13.73;;
23015;SDS011;11674;52.428;13.584;2023-02-28T18:03:39;42.67;;;18.13;;
23015;SDS011;11674;52.428;13.584;2023-02-28T18:08:46;39.38;;;17.92;;
23015;SDS011;11674;52.428;13.584;2023-02-28T18:13:53;32.90;;;14.57;;
23015;SDS011;11674;52.428;13.584;2023-02-28T18:19:00;30.67;;;13.07;;
23015;SDS011;11674;52.428;13.584;2023-02-28T18:24:08;24.10;;;10.15;;
23015;SDS011;11674;52.428;13.584;2023-02-28T18:29:17;26.45;;;11.30;;
23015;SDS011;11674;52.428;13.584;2023-02-28T18:34:26;30.92;;;15.27;;
23015;SDS011;11674;52.428;13.584;2023-02-28T18:39:36;27.17;;;14.02;;
23015;SDS011;11674;52.428;13.584;2023-02-28T18:44:43;57.30;;;24.08;;
23015;SDS011;11674;52.428;13.584;2023-02-28T18:49:50;48.17;;;21.48;;
23015;SDS011;11674;52.428;13.584;2023-02-28T18:54:57;37.90;;;18.13;;
23015;SDS011;11674;52.428;13.584;2023-02-28T19:00:04;32.28;;;17.67;;
23015;SDS011;11674;52.428;13.584;2023-02-28T19:05:12;33.22;;;16.90;;
23015;SDS011;11674;52.428;13.584;2023-02-28T19:10:19;28.05;;;15.32;;
23015;SDS011;11674;52.428;13.584;2023-02-28T19:15:26;30.90;;;15.18;;
23015;SDS011;11674;52.428;13.584;2023-02-28T19:20:33;32.08;;;16.20;;
23015;SDS011;11674;52.428;13.584;2023-02-28T19:25:40;41.40;;;19.30;;
23015;SDS011;11674;52.428;13.584;2023-02-28T19:30:48;28.63;;;14.77;;
23015;SDS011;11674;52.428;13.584;2023-02-28T19:35:59;26.80;;;13.10;;
23015;SDS011;11674;52.428;13.584;2023-02-28T19:41:07;24.83;;;11.95;;
23015;SDS011;11674;52.428;13.584;2023-02-28T19:46:15;20.85;;;12.05;;
23015;SDS011;11674;52.428;13.584;2023-02-28T19:51:22;23.27;;;10.95;;
23015;SDS011;11674;52.428;13.584;2023-02-28T19:56:29;32.70;;;15.77;;
23015;SDS011;11674;52.428;13.584;2023-02-28T20:01:36;37.28;;;17.33;;
23015;SDS011;11674;52.428;13.584;2023-02-28T20:06:43;32.67;;;15.77;;
23015;SDS011;11674;52.428;13.584;2023-02-28T20:11:50;24.63;;;12.15;;
23015;SDS011;11674;52.428;13.584;2023-02-28T20:16:57;24.95;;;12.40;;
23015;SDS011;11674;52.428;13.584;2023-02-28T20:22:04;22.40;;;12.23;;
23015;SDS011;11674;52.428;13.584;2023-02-28T20:27:11;48.15;;;21.73;;
23015;SDS011;11674;52.428;13.584;2023-02-28T20:32:18;30.40;;;16.00;;
23015;SDS011;11674;52.428;13.584;2023-02-28T20:37:28;33.55;;;16.95;;
23015;SDS011;11674;52.428;13.584;2023-02-28T20:42:35;32.10;;;15.52;;
23015;SDS011;11674;52.428;13.584;2023-02-28T20:47:43;23.63;;;12.40;;
23015;SDS011;11674;52.428;13.584;2023-02-28T20:52:49;29.42;;;15.38;;
23015;SDS011;11674;52.428;13.584;2023-02-28T20:57:56;29.40;;;15.75;;
23015;SDS011;11674;52.428;13.584;2023-02-28T21:03:03;29.38;;;14.27;;
23015;SDS011;11674;52.428;13.584;2023-02-28T21:08:10;24.40;;;13.38;;
23015;SDS011;11674;52.428;13.584;2023-02-28T21:13:17;29.73;;;15.20;;
23015;SDS011;11674;52.428;13.584;2023-02-28T21:18:24;43.83;;;20.70;;
23015;SDS011;11674;52.428;13.584;2023-02-28T21:23:32;26.77;;;15.15;;
23015;SDS011;11674;52.428;13.584;2023-02-28T21:28:39;32.47;;;16.83;;
23015;SDS011;11674;52.428;13.584;2023-02-28T21:33:47;34.55;;;17.73;;
23015;SDS011;11674;52.428;13.584;2023-02-28T21:38:55;30.60;;;16.40;;
23015;SDS011;11674;52.428;13.584;2023-02-28T21:44:03;30.98;;;16.55;;
23015;SDS011;11674;52.428;13.584;2023-02-28T21:49:11;29.08;;;15.52;;
23015;SDS011;11674;52.428;13.584;2023-02-28T21:54:18;24.50;;;14.65;;
23015;SDS011;11674;52.428;13.584;2023-02-28T21:59:25;27.30;;;12.27;;
23015;SDS011;11674;52.428;13.584;2023-02-28T22:04:32;19.33;;;11.10;;
23015;SDS011;11674;52.428;13.584;2023-02-28T22:09:39;25.92;;;12.57;;
23015;SDS011;11674;52.428;13.584;2023-02-28T22:14:46;26.02;;;12.23;;
23015;SDS011;11674;52.428;13.584;2023-02-28T22:19:53;22.35;;;11.68;;
23015;SDS011;11674;52.428;13.584;2023-02-28T22:25:00;21.33;;;11.75;;
23015;SDS011;11674;52.428;13.584;2023-02-28T22:30:07;22.55;;;11.50;;
23015;SDS011;11674;52.428;13.584;2023-02-28T22:35:15;20.42;;;10.98;;
23015;SDS011;11674;52.428;13.584;2023-02-28T22:40:22;20.63;;;10.82;;
23015;SDS011;11674;52.428;13.584;2023-02-28T22:45:30;17.60;;;10.60;;
23015;SDS011;11674;52.428;13.584;2023-02-28T22:50:36;21.88;;;12.10;;
23015;SDS011;11674;52.428;13.584;2023-02-28T22:55:43;25.38;;;13.05;;
23015;SDS011;11674;52.428;13.584;2023-02-28T23:00:50;20.33;;;12.45;;
23015;SDS011;11674;52.428;13.584;2023-02-28T23:05:57;21.73;;;12.23;;
23015;SDS011;11674;52.428;13.584;2023-02-28T23:11:04;24.70;;;13.38;;
23015;SDS011;11674;52.428;13.584;2023-02-28T23:16:11;26.42;;;12.90;;
23015;SDS011;11674;52.428;13.584;2023-02-28T23:21:18;20.67;;;10.35;;
23015;SDS011;11674;52.428;13.584;2023-02-28T23:26:25;17.75;;;10.00;;
23015;SDS011;11674;52.428;13.584;2023-02-28T23:31:32;18.42;;;9.82;;
23015;SDS011;11674;52.428;13.584;2023-02-28T23:36:40;16.75;;;9.52;;
23015;SDS011;11674;52.428;13.584;2023-02-28T23:41:47;19.88;;;9.48;;
23015;SDS011;11674;52.428;13.584;2023-02-28T23:47:00;21.95;;;10.38;;
23015;SDS011;11674;52.428;13.584;2023-02-28T23:52:08;16.88;;;9.55;;
23015;SDS011;11674;52.428;13.584;2023-02-28T23:57:15;20.15;;;10.48;;
